createdAt,value
2023-02-28T00:02:51.775Z,2.05
2023-02-28T00:05:53.311Z,2.03
2023-02-28T00:08:55.472Z,2.01
2023-02-28T00:11:56.993Z,2.00
2023-02-28T00:14:58.531Z,1.96
2023-02-28T00:18:00.278Z,1.94
2023-02-28T00:21:02.382Z,1.92
2023-02-28T00:24:04.108Z,1.89
2023-02-28T00:27:05.699Z,1.86
2023-02-28T00:30:09.663Z,1.78
2023-02-28T00:33:12.034Z,1.71
2023-02-28T00:36:13.575Z,1.67
2023-02-28T00:39:15.186Z,1.67
2023-02-28T00:42:16.733Z,1.66
2023-02-28T00:45:18.461Z,1.66
2023-02-28T00:48:20.026Z,1.65
2023-02-28T00:51:21.581Z,1.65
2023-02-28T00:54:23.360Z,1.62
2023-02-28T00:57:24.959Z,1.57
2023-02-28T01:00:26.502Z,1.52
2023-02-28T01:03:28.067Z,1.50
2023-02-28T01:06:30.288Z,1.47
2023-02-28T01:09:31.953Z,1.45
2023-02-28T01:12:33.528Z,1.44
2023-02-28T01:15:35.182Z,1.42
2023-02-28T01:18:37.988Z,1.42
2023-02-28T01:21:39.574Z,1.42
2023-02-28T01:24:41.127Z,1.42
2023-02-28T01:27:42.701Z,1.43
2023-02-28T01:31:04.218Z,1.43
2023-02-28T01:34:05.912Z,1.43
2023-02-28T01:37:07.483Z,1.44
2023-02-28T01:40:09.774Z,1.43
2023-02-28T01:43:25.917Z,1.41
2023-02-28T01:46:27.639Z,1.41
2023-02-28T01:49:29.259Z,1.42
2023-02-28T01:52:32.866Z,1.42
2023-02-28T01:55:35.569Z,1.41
2023-02-28T01:58:38.131Z,1.40
2023-02-28T02:01:39.753Z,1.38
2023-02-28T02:04:51.057Z,1.37
2023-02-28T02:07:57.038Z,1.37
2023-02-28T02:11:02.051Z,1.37
2023-02-28T02:14:22.533Z,1.37
2023-02-28T02:17:45.666Z,1.36
2023-02-28T02:21:19.604Z,1.34
2023-02-28T02:24:36.276Z,1.32
2023-02-28T02:28:05.658Z,1.30
2023-02-28T02:31:16.170Z,1.29
2023-02-28T02:34:42.455Z,1.26
2023-02-28T02:37:51.234Z,1.23
2023-02-28T02:41:17.001Z,1.21
2023-02-28T02:44:57.245Z,1.15
2023-02-28T02:48:01.256Z,1.12
2023-02-28T02:51:12.846Z,1.09
2023-02-28T02:54:19.132Z,1.07
2023-02-28T02:57:56.568Z,1.07
2023-02-28T03:01:01.777Z,1.03
2023-02-28T03:04:16.025Z,0.98
2023-02-28T03:07:17.584Z,0.95
2023-02-28T03:10:29.652Z,0.94
2023-02-28T03:13:53.377Z,0.90
2023-02-28T03:17:10.181Z,0.88
2023-02-28T03:20:43.166Z,0.88
2023-02-28T03:24:04.831Z,0.85
2023-02-28T03:27:13.101Z,0.85
2023-02-28T03:30:37.128Z,0.85
2023-02-28T03:34:02.106Z,0.84
2023-02-28T03:37:09.855Z,0.84
2023-02-28T03:40:22.536Z,0.85
2023-02-28T03:43:29.828Z,0.86
2023-02-28T03:46:37.328Z,0.86
2023-02-28T03:49:48.906Z,0.83
2023-02-28T03:53:19.361Z,0.82
2023-02-28T03:56:26.089Z,0.80
2023-02-28T03:59:37.703Z,0.80
2023-02-28T04:02:40.582Z,0.78
2023-02-28T04:05:56.783Z,0.79
2023-02-28T04:08:58.500Z,0.76
2023-02-28T04:12:00.424Z,0.77
2023-02-28T04:15:02.010Z,0.76
2023-02-28T04:18:03.650Z,0.76
2023-02-28T04:21:05.984Z,0.75
2023-02-28T04:24:09.798Z,0.74
2023-02-28T04:27:11.504Z,0.70
2023-02-28T04:30:13.600Z,0.64
2023-02-28T04:33:15.113Z,0.60
2023-02-28T04:36:18.755Z,0.58
2023-02-28T04:39:20.768Z,0.55
2023-02-28T04:42:22.395Z,0.51
2023-02-28T04:45:23.970Z,0.50
2023-02-28T04:48:26.799Z,0.48
2023-02-28T04:51:28.627Z,0.47
2023-02-28T04:54:30.899Z,0.47
2023-02-28T04:57:32.478Z,0.48
2023-02-28T05:00:34.057Z,0.49
2023-02-28T05:03:35.656Z,0.47
2023-02-28T05:06:37.215Z,0.45
2023-02-28T05:09:38.817Z,0.40
2023-02-28T05:12:40.379Z,0.34
2023-02-28T05:15:41.989Z,0.31
2023-02-28T05:18:43.696Z,0.28
2023-02-28T05:21:55.812Z,0.24
2023-02-28T05:24:57.346Z,0.22
2023-02-28T05:27:58.898Z,0.22
2023-02-28T05:31:00.478Z,0.21
2023-02-28T05:34:02.357Z,0.18
2023-02-28T05:37:04.109Z,0.19
2023-02-28T05:40:08.189Z,0.22
2023-02-28T05:43:12.823Z,0.37
2023-02-28T05:46:15.117Z,0.89
2023-02-28T05:49:16.699Z,1.01
2023-02-28T05:52:18.708Z,0.99
2023-02-28T05:55:20.323Z,0.92
2023-02-28T05:58:22.860Z,0.86
2023-02-28T06:01:39.930Z,0.79
2023-02-28T06:04:42.583Z,0.75
2023-02-28T06:07:45.089Z,0.72
2023-02-28T06:10:46.801Z,0.67
2023-02-28T06:13:48.641Z,0.62
2023-02-28T06:16:50.293Z,0.54
2023-02-28T06:19:51.921Z,0.48
2023-02-28T06:22:55.589Z,0.40
2023-02-28T06:25:59.319Z,0.32
2023-02-28T06:29:02.068Z,0.23
2023-02-28T06:32:03.865Z,0.19
2023-02-28T06:35:05.749Z,0.17
2023-02-28T06:38:07.539Z,0.15
2023-02-28T06:41:09.850Z,0.11
2023-02-28T06:44:18.979Z,0.11
2023-02-28T06:47:20.567Z,0.10
2023-02-28T06:50:22.122Z,0.12
2023-02-28T06:53:23.657Z,0.13
2023-02-28T06:56:25.309Z,0.13
2023-02-28T06:59:27.168Z,0.08
2023-02-28T07:02:28.923Z,0.06
2023-02-28T07:05:30.742Z,0.06
2023-02-28T07:08:33.106Z,0.14
2023-02-28T07:11:35.107Z,0.22
2023-02-28T07:14:38.147Z,0.32
2023-02-28T07:17:39.774Z,0.44
2023-02-28T07:20:41.362Z,0.57
2023-02-28T07:23:42.924Z,0.74
2023-02-28T07:26:44.592Z,0.87
2023-02-28T07:29:46.156Z,1.00
2023-02-28T07:32:47.752Z,1.12
2023-02-28T07:35:49.324Z,1.39
2023-02-28T07:38:51.306Z,1.54
2023-02-28T07:41:53.020Z,1.58
2023-02-28T07:44:54.559Z,1.62
2023-02-28T07:47:57.018Z,1.66
2023-02-28T07:50:59.886Z,1.71
2023-02-28T07:54:01.524Z,1.81
2023-02-28T07:57:03.934Z,1.91
2023-02-28T08:00:07.048Z,1.99
2023-02-28T08:03:13.042Z,2.04
2023-02-28T08:06:22.152Z,2.08
2023-02-28T08:09:23.911Z,2.08
2023-02-28T08:12:25.486Z,2.36
2023-02-28T08:15:27.078Z,2.52
2023-02-28T08:18:28.642Z,2.55
2023-02-28T08:21:30.666Z,2.55
2023-02-28T08:24:32.471Z,2.55
2023-02-28T08:27:34.094Z,2.54
2023-02-28T08:30:35.693Z,2.58
2023-02-28T08:33:38.234Z,2.62
2023-02-28T08:36:40.717Z,2.67
2023-02-28T08:39:42.351Z,2.72
2023-02-28T08:42:43.923Z,2.79
2023-02-28T08:45:45.576Z,2.92
2023-02-28T08:48:47.256Z,3.05
2023-02-28T08:51:48.766Z,3.18
2023-02-28T08:54:50.443Z,3.28
2023-02-28T08:57:51.989Z,3.36
2023-02-28T09:00:54.229Z,3.43
2023-02-28T09:07:03.472Z,3.52
2023-02-28T09:10:05.458Z,3.56
2023-02-28T09:13:07.698Z,3.57
2023-02-28T09:16:12.936Z,3.61
2023-02-28T09:19:14.989Z,3.69
2023-02-28T09:22:16.945Z,3.78
2023-02-28T09:25:19.849Z,3.87
2023-02-28T09:28:22.408Z,3.99
2023-02-28T09:31:27.035Z,4.13
2023-02-28T09:34:31.939Z,4.30
2023-02-28T09:37:33.609Z,4.43
2023-02-28T09:40:46.158Z,4.60
2023-02-28T09:44:00.719Z,4.71
2023-02-28T09:47:12.359Z,4.83
2023-02-28T09:50:37.277Z,4.95
2023-02-28T09:53:40.957Z,5.08
2023-02-28T09:56:43.182Z,5.18
2023-02-28T09:59:50.891Z,5.26
2023-02-28T10:03:04.546Z,5.35
2023-02-28T10:06:23.805Z,5.37
2023-02-28T10:09:33.249Z,5.45
2023-02-28T10:12:38.772Z,5.53
2023-02-28T10:15:40.448Z,5.63
2023-02-28T10:18:52.194Z,5.70
2023-02-28T10:22:12.825Z,5.77
2023-02-28T10:25:23.734Z,5.87
2023-02-28T10:28:27.280Z,5.93
2023-02-28T10:31:29.062Z,5.93
2023-02-28T10:34:30.716Z,5.91
2023-02-28T10:37:33.248Z,6.07
2023-02-28T10:40:36.827Z,6.22
2023-02-28T10:43:40.714Z,6.34
2023-02-28T10:46:43.530Z,6.34
2023-02-28T10:49:50.152Z,6.32
2023-02-28T10:52:51.721Z,6.32
2023-02-28T10:56:04.533Z,6.33
2023-02-28T10:59:09.137Z,6.31
2023-02-28T11:02:38.629Z,6.27
2023-02-28T11:05:42.335Z,6.32
2023-02-28T11:08:46.883Z,6.41
2023-02-28T11:11:50.031Z,6.39
2023-02-28T11:14:59.029Z,6.36
2023-02-28T11:18:00.539Z,6.45
2023-02-28T11:21:03.898Z,6.52
2023-02-28T11:24:16.747Z,6.57
2023-02-28T11:27:53.562Z,6.69
2023-02-28T11:31:13.299Z,6.79
2023-02-28T11:34:25.925Z,6.83
2023-02-28T11:37:28.993Z,6.96
2023-02-28T11:41:06.455Z,7.05
2023-02-28T11:44:10.718Z,7.16
2023-02-28T11:47:21.855Z,7.25
2023-02-28T11:50:40.834Z,7.19
2023-02-28T11:54:10.016Z,6.99
2023-02-28T11:57:57.759Z,6.78
2023-02-28T12:01:08.806Z,6.75
2023-02-28T12:04:26.054Z,6.77
2023-02-28T12:08:04.656Z,6.75
2023-02-28T12:11:12.222Z,6.64
2023-02-28T12:14:28.221Z,6.63
2023-02-28T12:17:35.699Z,6.75
2023-02-28T12:21:03.345Z,6.85
2023-02-28T12:24:17.152Z,6.96
2023-02-28T12:27:23.047Z,6.91
2023-02-28T12:30:33.767Z,6.75
2023-02-28T12:33:44.987Z,6.60
2023-02-28T12:36:48.448Z,6.48
2023-02-28T12:39:55.968Z,6.43
2023-02-28T12:43:08.053Z,6.51
2023-02-28T12:46:21.024Z,6.67
2023-02-28T12:49:50.503Z,6.82
2023-02-28T12:53:10.650Z,6.95
2023-02-28T12:56:40.985Z,7.02
2023-02-28T13:00:05.768Z,7.05
2023-02-28T13:03:19.225Z,7.14
2023-02-28T13:06:29.682Z,7.45
2023-02-28T13:09:31.542Z,7.68
2023-02-28T13:12:33.799Z,7.74
2023-02-28T13:15:41.523Z,7.57
2023-02-28T13:18:47.871Z,7.30
2023-02-28T13:21:50.068Z,7.10
2023-02-28T13:24:56.795Z,6.96
2023-02-28T13:28:02.036Z,6.82
2023-02-28T13:31:05.924Z,6.71
2023-02-28T13:34:15.975Z,6.57
2023-02-28T13:37:24.017Z,6.51
2023-02-28T13:40:38.772Z,6.42
2023-02-28T13:44:27.798Z,6.38
2023-02-28T13:47:52.626Z,6.45
2023-02-28T13:50:54.243Z,6.55
2023-02-28T13:54:09.172Z,6.59
2023-02-28T13:57:38.586Z,6.63
2023-02-28T14:00:57.183Z,6.67
2023-02-28T14:04:31.353Z,6.73
2023-02-28T14:07:48.145Z,6.61
2023-02-28T14:11:08.202Z,6.46
2023-02-28T14:14:30.940Z,6.35
2023-02-28T14:17:33.191Z,6.23
2023-02-28T14:20:35.274Z,6.11
2023-02-28T14:23:56.783Z,6.10
2023-02-28T14:27:05.081Z,6.14
2023-02-28T14:30:09.720Z,6.12
2023-02-28T14:33:20.437Z,6.06
2023-02-28T14:36:27.471Z,5.98
2023-02-28T14:39:34.390Z,5.93
2023-02-28T14:42:39.090Z,5.81
2023-02-28T14:45:40.695Z,5.77
2023-02-28T14:48:45.798Z,5.77
2023-02-28T14:51:50.402Z,5.93
2023-02-28T14:54:59.350Z,6.01
2023-02-28T14:58:07.615Z,5.92
2023-02-28T15:01:11.341Z,5.74
2023-02-28T15:04:24.034Z,5.67
2023-02-28T15:07:29.486Z,5.57
2023-02-28T15:10:32.024Z,5.43
2023-02-28T15:13:50.551Z,5.32
2023-02-28T15:17:03.137Z,5.27
2023-02-28T15:20:05.349Z,5.21
2023-02-28T15:23:07.110Z,5.15
2023-02-28T15:26:15.437Z,5.09
2023-02-28T15:29:21.653Z,5.04
2023-02-28T15:32:32.546Z,5.00
2023-02-28T15:35:34.705Z,4.95
2023-02-28T15:38:37.378Z,4.94
2023-02-28T15:41:39.282Z,5.01
2023-02-28T15:44:40.868Z,5.02
2023-02-28T15:47:47.236Z,5.02
2023-02-28T15:50:53.439Z,4.97
2023-02-28T15:54:01.666Z,4.91
2023-02-28T15:57:09.552Z,4.81
2023-02-28T16:00:15.107Z,4.69
2023-02-28T16:03:40.370Z,4.65
2023-02-28T16:06:46.168Z,4.67
2023-02-28T16:09:49.147Z,4.63
2023-02-28T16:12:50.763Z,4.58
2023-02-28T16:15:52.437Z,4.54
2023-02-28T16:18:54.566Z,4.52
2023-02-28T16:21:56.198Z,4.50
2023-02-28T16:24:57.770Z,4.48
2023-02-28T16:28:01.386Z,4.45
2023-02-28T16:31:06.266Z,4.40
2023-02-28T16:34:07.907Z,4.38
2023-02-28T16:37:14.046Z,4.35
2023-02-28T16:40:21.931Z,4.30
2023-02-28T16:43:25.749Z,4.25
2023-02-28T16:46:37.146Z,4.21
2023-02-28T16:49:39.333Z,4.15
2023-02-28T16:52:40.848Z,4.09
2023-02-28T16:55:42.716Z,4.03
2023-02-28T16:58:45.010Z,3.96
2023-02-28T17:01:46.828Z,3.88
2023-02-28T17:04:48.575Z,3.80
2023-02-28T17:07:50.655Z,3.71
2023-02-28T17:10:52.249Z,3.65
2023-02-28T17:13:54.966Z,3.56
2023-02-28T17:16:56.603Z,3.47
2023-02-28T17:19:58.107Z,3.40
2023-02-28T17:22:59.668Z,3.32
2023-02-28T17:26:01.323Z,3.26
2023-02-28T17:29:02.909Z,3.18
2023-02-28T17:32:17.024Z,3.14
2023-02-28T17:35:19.090Z,3.09
2023-02-28T17:38:21.080Z,3.00
2023-02-28T17:41:23.176Z,2.93
2023-02-28T17:44:26.033Z,2.83
2023-02-28T17:47:27.619Z,2.75
2023-02-28T17:50:29.238Z,2.68
2023-02-28T17:53:30.788Z,2.61
2023-02-28T17:56:32.913Z,2.53
2023-02-28T17:59:34.632Z,2.49
2023-02-28T18:02:36.223Z,2.44
2023-02-28T18:05:38.141Z,2.36
2023-02-28T18:08:39.763Z,2.28
2023-02-28T18:11:46.146Z,2.19
2023-02-28T18:14:48.783Z,2.09
2023-02-28T18:17:50.505Z,2.04
2023-02-28T18:20:53.385Z,1.98
2023-02-28T18:23:55.111Z,1.95
2023-02-28T18:26:56.689Z,1.89
2023-02-28T18:29:58.438Z,1.86
2023-02-28T18:33:01.625Z,1.83
2023-02-28T18:36:03.791Z,1.79
2023-02-28T18:39:05.907Z,1.74
2023-02-28T18:42:07.504Z,1.70
2023-02-28T18:45:09.668Z,1.63
2023-02-28T18:48:11.241Z,1.59
2023-02-28T18:51:19.130Z,1.52
2023-02-28T18:54:20.863Z,1.46
2023-02-28T18:57:22.449Z,1.42
2023-02-28T19:00:25.792Z,1.37
2023-02-28T19:03:27.574Z,1.32
2023-02-28T19:06:30.404Z,1.25
2023-02-28T19:09:32.177Z,1.20
2023-02-28T19:12:35.472Z,1.11
2023-02-28T19:15:37.075Z,1.04
2023-02-28T19:18:39.108Z,0.98
2023-02-28T19:21:40.809Z,0.90
2023-02-28T19:24:42.315Z,0.82
2023-02-28T19:27:43.938Z,0.78
2023-02-28T19:30:49.933Z,0.73
2023-02-28T19:33:54.951Z,0.69
2023-02-28T19:36:57.072Z,0.64
2023-02-28T19:39:58.786Z,0.59
2023-02-28T19:43:02.966Z,0.53
2023-02-28T19:46:06.613Z,0.45
2023-02-28T19:49:08.298Z,0.39
2023-02-28T19:52:13.399Z,0.31
2023-02-28T19:55:17.722Z,0.24
2023-02-28T19:58:19.981Z,0.23
2023-02-28T20:01:21.691Z,0.21
2023-02-28T20:04:24.290Z,0.19
2023-02-28T20:07:26.200Z,0.17
2023-02-28T20:10:27.729Z,0.17
2023-02-28T20:13:29.324Z,0.13
2023-02-28T20:16:32.267Z,0.10
2023-02-28T20:19:34.042Z,0.06
2023-02-28T20:22:38.228Z,0.01
2023-02-28T20:25:40.923Z,-0.05
2023-02-28T20:28:43.421Z,-0.08
2023-02-28T20:31:45.392Z,-0.10
2023-02-28T20:34:46.986Z,-0.12
2023-02-28T20:37:48.767Z,-0.12
2023-02-28T20:40:55.276Z,-0.13
2023-02-28T20:43:58.533Z,-0.16
2023-02-28T20:47:00.861Z,-0.20
2023-02-28T20:50:02.416Z,-0.25
2023-02-28T20:53:04.013Z,-0.25
2023-02-28T20:56:09.162Z,-0.25
2023-02-28T20:59:12.340Z,-0.30
2023-02-28T21:02:19.078Z,-0.33
2023-02-28T21:05:20.653Z,-0.36
2023-02-28T21:08:22.311Z,-0.39
2023-02-28T21:11:28.025Z,-0.45
2023-02-28T21:14:29.622Z,-0.50
2023-02-28T21:17:31.236Z,-0.57
2023-02-28T21:20:32.793Z,-0.65
2023-02-28T21:23:34.594Z,-0.72
2023-02-28T21:26:36.209Z,-0.77
2023-02-28T21:29:38.302Z,-0.83
2023-02-28T21:32:39.859Z,-0.87
2023-02-28T21:35:41.432Z,-0.91
2023-02-28T21:38:44.333Z,-0.94
2023-02-28T21:41:47.336Z,-0.98
2023-02-28T21:44:50.288Z,-1.01
2023-02-28T21:47:51.834Z,-1.10
2023-02-28T21:51:04.181Z,-1.17
2023-02-28T21:54:06.192Z,-1.23
2023-02-28T21:57:07.763Z,-1.29
2023-02-28T22:00:11.641Z,-1.34
2023-02-28T22:03:14.019Z,-1.36
2023-02-28T22:06:21.334Z,-1.36
2023-02-28T22:09:23.245Z,-1.38
2023-02-28T22:12:25.688Z,-1.39
2023-02-28T22:15:27.842Z,-1.40
2023-02-28T22:18:29.444Z,-1.42
2023-02-28T22:21:31.032Z,-1.43
2023-02-28T22:24:32.642Z,-1.26
2023-02-28T22:27:34.160Z,-1.02
2023-02-28T22:30:35.696Z,-1.03
2023-02-28T22:33:37.234Z,-1.11
2023-02-28T22:36:41.719Z,-1.18
2023-02-28T22:39:43.275Z,-1.26
2023-02-28T22:42:44.957Z,-1.32
2023-02-28T22:45:46.588Z,-1.40
2023-02-28T22:48:48.908Z,-1.47
2023-02-28T22:51:50.743Z,-1.52
2023-02-28T22:54:53.328Z,-1.58
2023-02-28T22:57:54.867Z,-1.66
2023-02-28T23:00:56.750Z,-1.71
2023-02-28T23:03:59.144Z,-1.76
2023-02-28T23:07:00.746Z,-1.79
2023-02-28T23:10:08.801Z,-1.84
2023-02-28T23:13:10.360Z,-1.88
2023-02-28T23:16:11.924Z,-1.86
2023-02-28T23:19:15.364Z,-1.91
2023-02-28T23:22:16.951Z,-1.98
2023-02-28T23:25:20.320Z,-2.04
2023-02-28T23:28:23.082Z,-2.11
2023-02-28T23:31:24.794Z,-2.17
2023-02-28T23:34:30.334Z,-2.25
2023-02-28T23:37:32.466Z,-2.33
2023-02-28T23:40:34.021Z,-2.41
2023-02-28T23:43:35.970Z,-2.49
2023-02-28T23:46:37.532Z,-2.56
2023-02-28T23:49:39.221Z,-2.64
2023-02-28T23:52:40.748Z,-2.70
2023-02-28T23:55:47.300Z,-2.76
2023-02-28T23:58:50.272Z,-2.81
